Time;durP1;ratioP1;P1;durP2;ratioP2;P2;SDS_P1;SDS_P2;PMS_P1;PMS_P2;Temp;Humidity;BMP_temperature;BMP_pressure;BME280_temperature;BME280_humidity;BME280_pressure;Samples;Min_cycle;Max_cycle;Signal;HPM_P1;HPM_P2
2022/08/30 00:02:59;;;;;;;5.82;4.85;;;21.50;99.90;;;20.20;81.75;100271.31;10455558;27;98195;-87
2022/08/30 00:08:03;;;;;;;5.65;4.22;;;21.40;99.90;;;20.21;81.80;100263.00;10459005;27;96619;-88
2022/08/30 00:13:11;;;;;;;5.93;4.25;;;21.50;99.90;;;20.26;82.33;100275.78;10454607;27;97932;-87
2022/08/30 00:18:17;;;;;;;5.32;4.50;;;21.50;99.90;;;20.31;82.43;100270.53;10442377;27;96923;-87
2022/08/30 00:23:20;;;;;;;5.95;4.20;;;21.60;99.90;;;20.36;82.33;100269.84;10438062;27;97449;-87
2022/08/30 00:28:24;;;;;;;5.88;5.05;;;21.60;99.90;;;20.38;82.55;100279.34;10424641;27;96805;-85
2022/08/30 00:33:27;;;;;;;4.72;4.30;;;21.70;99.90;;;20.45;82.26;100271.16;10437720;27;97994;-86
2022/08/30 00:38:30;;;;;;;5.57;4.03;;;21.80;99.90;;;20.49;82.30;100269.69;10415481;27;96552;-86
2022/08/30 00:43:34;;;;;;;5.25;4.10;;;21.80;99.90;;;20.54;81.97;100273.34;10429052;27;96758;-87
2022/08/30 00:48:43;;;;;;;5.95;4.43;;;21.90;99.90;;;20.56;81.86;100263.13;10412817;27;96999;-87
2022/08/30 00:53:53;;;;;;;5.85;4.13;;;22.00;99.90;;;20.58;81.87;100261.03;10415917;27;97283;-87
2022/08/30 00:58:59;;;;;;;;;;;21.90;99.90;;;20.52;82.05;100263.84;10447635;27;96584;-86
2022/08/30 01:04:05;;;;;;;5.70;3.85;;;22.00;99.90;;;20.49;81.98;100270.50;10405833;27;97679;-86
2022/08/30 01:09:08;;;;;;;6.18;4.32;;;22.00;99.90;;;20.31;80.82;100270.53;10452611;27;96623;-86
2022/08/30 01:14:13;;;;;;;4.93;4.43;;;21.70;99.90;;;20.19;81.27;100272.38;10452571;27;96807;-87
2022/08/30 01:19:48;;;;;;;6.72;4.70;;;21.50;99.90;;;20.08;81.37;100265.88;10450484;27;97372;-87
2022/08/30 01:24:55;;;;;;;5.70;4.78;;;21.40;99.90;;;19.99;81.50;100270.78;10449301;27;98993;-87
2022/08/30 01:29:58;;;;;;;7.15;4.72;;;21.30;99.90;;;19.94;82.00;100265.22;10447422;27;97241;-87
2022/08/30 01:35:01;;;;;;;5.55;4.95;;;21.30;99.90;;;19.83;82.13;100260.59;10428496;27;97778;-87
2022/08/30 01:40:08;;;;;;;5.30;4.72;;;21.20;99.90;;;19.79;82.18;100259.41;10399532;27;96935;-87
2022/08/30 01:45:12;;;;;;;6.93;4.85;;;21.10;99.90;;;19.70;82.39;100261.59;10444303;27;97979;-87
2022/08/30 01:50:15;;;;;;;6.90;5.03;;;21.10;99.90;;;19.60;82.84;100260.47;10415790;27;96609;-87
2022/08/30 01:55:18;;;;;;;6.55;5.22;;;20.90;99.90;;;19.52;83.11;100248.91;10427902;27;98620;-87
2022/08/30 02:00:22;;;;;;;5.93;5.07;;;20.90;99.90;;;19.49;83.43;100254.78;10461049;27;97291;-87
2022/08/30 02:05:25;;;;;;;5.43;4.43;;;20.90;99.90;;;19.44;83.45;100246.53;10448707;27;96829;-87
2022/08/30 02:10:29;;;;;;;5.55;4.97;;;20.90;99.90;;;19.43;83.80;100252.97;10442223;27;96552;-87
2022/08/30 02:15:34;;;;;;;6.32;5.60;;;20.80;99.90;;;19.38;83.64;100257.41;10431081;27;96921;-87
2022/08/30 02:20:43;;;;;;;7.03;5.25;;;20.70;99.90;;;19.31;83.76;100246.69;10447545;27;96756;-87
2022/08/30 02:25:46;;;;;;;5.78;4.95;;;20.70;99.90;;;19.25;84.14;100239.47;10431273;27;97074;-87
2022/08/30 02:30:50;;;;;;;6.38;5.38;;;20.60;99.90;;;19.21;84.05;100241.00;10450247;27;96987;-87
2022/08/30 02:35:54;;;;;;;5.97;5.38;;;20.60;99.90;;;19.18;84.41;100244.13;10433333;27;98344;-87
2022/08/30 02:40:58;;;;;;;6.13;5.43;;;20.60;99.90;;;19.14;84.37;100240.25;10457255;27;96562;-87
2022/08/30 02:46:01;;;;;;;8.18;6.03;;;20.50;99.90;;;19.10;84.57;100250.63;10449737;27;98130;-86
2022/08/30 02:51:08;;;;;;;8.25;7.43;;;20.50;99.90;;;19.08;84.52;100243.81;10443868;27;96559;-86
2022/08/30 02:56:14;;;;;;;8.07;7.23;;;20.50;99.90;;;19.06;84.68;100245.88;10437369;27;96653;-86
2022/08/30 03:01:17;;;;;;;9.90;7.15;;;20.50;99.90;;;18.98;84.39;100245.13;10409177;27;97615;-86
2022/08/30 03:06:20;;;;;;;6.85;5.85;;;20.40;99.90;;;18.97;84.69;100250.75;10440489;27;96613;-86
2022/08/30 03:11:23;;;;;;;7.93;5.70;;;20.40;99.90;;;18.93;84.94;100250.34;10459717;27;96509;-85
2022/08/30 03:16:26;;;;;;;6.65;5.70;;;20.30;99.90;;;18.89;84.63;100242.94;10450128;27;96587;-85
2022/08/30 03:21:29;;;;;;;9.45;5.95;;;20.20;99.90;;;18.88;84.70;100252.06;10414315;27;97240;-86
2022/08/30 03:26:32;;;;;;;6.93;5.28;;;20.20;99.90;;;18.85;84.90;100253.34;10459935;27;96612;-85
2022/08/30 03:31:35;;;;;;;6.00;5.40;;;20.20;99.90;;;18.85;84.62;100253.34;10407956;27;96918;-86
2022/08/30 03:36:55;;;;;;;6.65;5.78;;;20.30;99.90;;;18.83;84.42;100266.22;10413299;27;96532;-86
2022/08/30 03:41:58;;;;;;;7.18;5.53;;;20.30;99.90;;;18.78;85.02;100271.44;10424961;27;97971;-86
2022/08/30 03:47:02;;;;;;;6.43;5.68;;;20.20;99.90;;;18.68;84.74;100268.41;10414510;27;96619;-87
2022/08/30 03:52:05;;;;;;;7.10;5.55;;;20.10;99.90;;;18.54;84.62;100269.50;10442699;27;96589;-87
2022/08/30 03:57:08;;;;;;;8.38;5.90;;;20.00;99.90;;;18.46;84.81;100282.16;10439234;27;96777;-87
2022/08/30 04:02:22;;;;;;;7.78;5.97;;;19.80;99.90;;;18.37;85.33;100282.66;10432264;27;97249;-87
2022/08/30 04:07:25;;;;;;;8.88;5.72;;;19.70;99.90;;;18.35;85.67;100288.28;10444539;27;96658;-87
2022/08/30 04:12:28;;;;;;;8.27;5.90;;;19.70;99.90;;;18.31;85.74;100289.72;10453404;27;96531;-87
2022/08/30 04:17:31;;;;;;;7.05;6.20;;;19.70;99.90;;;18.23;85.88;100291.84;10441859;27;96717;-87
2022/08/30 04:22:35;;;;;;;6.68;5.97;;;19.70;99.90;;;18.26;86.18;100302.19;10404240;27;97376;-86
2022/08/30 04:27:39;;;;;;;8.40;6.25;;;19.60;99.90;;;18.28;86.22;100310.84;10456856;27;96988;-86
2022/08/30 04:32:44;;;;;;;8.95;7.63;;;19.60;99.90;;;18.31;86.23;100319.31;10429105;27;96812;-87
2022/08/30 04:37:47;;;;;;;7.15;5.97;;;19.70;99.90;;;18.35;86.58;100323.25;10442127;27;97372;-87
2022/08/30 04:42:53;;;;;;;6.32;5.65;;;19.70;99.90;;;18.40;86.33;100336.03;10415776;27;96608;-87
2022/08/30 04:47:56;;;;;;;7.03;5.57;;;19.80;99.90;;;18.44;86.61;100331.88;10444355;27;97979;-87
2022/08/30 04:52:59;;;;;;;6.47;5.80;;;19.80;99.90;;;18.52;86.62;100330.78;10417175;27;96813;-87
2022/08/30 04:58:02;;;;;;;6.72;5.57;;;19.90;99.90;;;18.63;86.78;100349.75;10438800;27;97381;-87
2022/08/30 05:03:05;;;;;;;6.50;5.60;;;20.00;99.90;;;18.77;86.87;100357.75;10420979;27;96784;-84
2022/08/30 05:08:11;;;;;;;6.28;5.50;;;20.10;99.90;;;18.84;87.03;100351.31;10446317;27;96703;-84
2022/08/30 05:13:17;;;;;;;9.98;5.43;;;20.20;99.90;;;18.90;87.15;100363.91;10440728;27;97229;-83
2022/08/30 05:18:20;;;;;;;7.80;5.15;;;20.30;99.90;;;18.99;86.78;100359.06;10428084;27;96552;-84
2022/08/30 05:23:24;;;;;;;7.03;5.78;;;20.30;99.90;;;19.10;87.12;100352.16;10397056;28;96535;-84
2022/08/30 05:28:26;;;;;;;7.22;5.32;;;20.40;99.90;;;19.22;86.85;100348.50;10433654;27;96509;-84
2022/08/30 05:33:30;;;;;;;10.90;5.40;;;20.50;99.90;;;19.36;86.71;100353.78;10457967;27;97234;-84
2022/08/30 05:38:44;;;;;;;7.95;6.15;;;20.70;99.90;;;19.52;86.53;100356.72;10447587;27;96651;-84
2022/08/30 05:43:51;;;;;;;5.95;5.15;;;20.90;99.90;;;19.70;86.53;100361.34;10461819;27;96997;-84
2022/08/30 05:48:55;;;;;;;5.63;5.00;;;21.10;99.90;;;19.89;85.92;100361.34;10455851;27;98315;-84
2022/08/30 05:54:00;;;;;;;5.45;4.88;;;21.20;99.90;;;20.00;84.85;100361.44;10431409;27;98000;-84
2022/08/30 05:59:07;;;;;;;5.70;4.72;;;21.40;99.90;;;20.19;84.45;100373.03;10440907;27;97549;-84
2022/08/30 06:04:12;;;;;;;10.15;5.00;;;21.50;99.90;;;20.33;84.01;100362.88;10431002;27;97952;-84
2022/08/30 06:09:16;;;;;;;5.55;4.65;;;21.60;99.90;;;20.50;83.00;100368.50;10432955;28;96553;-83
2022/08/30 06:14:19;;;;;;;8.95;4.97;;;21.80;99.90;;;20.63;82.17;100367.47;10465177;27;96764;-83
2022/08/30 06:19:22;;;;;;;5.68;5.10;;;21.90;99.90;;;20.72;81.34;100374.22;10440211;27;96807;-83
2022/08/30 06:24:25;;;;;;;7.70;5.30;;;22.10;99.90;;;20.81;80.75;100378.22;10455579;27;96581;-83
2022/08/30 06:29:52;;;;;;;10.68;5.60;;;22.10;99.90;;;20.96;80.96;100378.63;10420049;27;97160;-84
2022/08/30 06:34:55;;;;;;;10.55;6.22;;;22.30;99.90;;;21.08;81.06;100374.06;10434991;27;97082;-84
2022/08/30 06:40:00;;;;;;;9.57;5.95;;;22.40;99.90;;;21.25;80.87;100370.69;10402442;27;96537;-84
2022/08/30 06:45:04;;;;;;;10.65;6.13;;;22.60;99.90;;;21.35;80.60;100366.38;10438688;27;98524;-84
2022/08/30 06:50:15;;;;;;;10.93;6.18;;;22.70;99.90;;;21.50;79.96;100368.59;10421314;27;97341;-84
2022/08/30 06:55:19;;;;;;;15.15;5.97;;;22.80;99.90;;;21.64;79.39;100370.00;10443368;27;97291;-84
2022/08/30 07:00:22;;;;;;;8.38;5.65;;;23.00;99.90;;;21.85;78.86;100371.28;10427850;27;97665;-84
2022/08/30 07:05:25;;;;;;;10.40;6.30;;;23.20;99.90;;;21.99;76.99;100369.13;10423169;27;96738;-84
2022/08/30 07:10:28;;;;;;;9.60;5.13;;;23.40;99.90;;;22.17;76.65;100369.00;10451669;27;96590;-85
2022/08/30 07:15:30;;;;;;;11.82;5.32;;;23.60;99.90;;;22.37;75.61;100367.75;10459877;27;96637;-85
2022/08/30 07:20:40;;;;;;;6.73;4.90;;;23.70;99.90;;;22.65;75.50;100365.03;10445577;27;96454;-83
2022/08/30 07:25:43;;;;;;;10.98;5.50;;;24.00;99.90;;;22.92;73.33;100375.31;10410089;27;98140;-83
2022/08/30 07:30:46;;;;;;;5.63;4.40;;;24.30;99.90;;;23.12;70.05;100369.41;10441116;27;98315;-83
2022/08/30 07:35:48;;;;;;;5.80;4.47;;;24.50;99.90;;;23.37;67.68;100377.09;10441027;27;96496;-84
2022/08/30 07:40:52;;;;;;;7.38;4.60;;;24.70;99.90;;;23.66;66.36;100370.53;10457288;27;96628;-83
2022/08/30 07:46:06;;;;;;;6.45;4.07;;;25.00;99.10;;;24.13;64.64;100370.06;10424360;27;96616;-83
2022/08/30 07:51:15;;;;;;;5.65;3.50;;;25.40;98.20;;;24.89;59.67;100375.50;10464456;27;96730;-83
2022/08/30 07:56:19;;;;;;;4.20;3.80;;;25.90;95.80;;;25.04;56.47;100369.38;10437878;27;96602;-84
2022/08/30 08:01:23;;;;;;;5.18;4.00;;;26.10;93.80;;;24.94;57.07;100380.16;10413464;27;97656;-82
2022/08/30 08:06:26;;;;;;;4.88;3.33;;;26.10;93.10;;;24.85;54.66;100368.13;10433552;27;96473;-83
2022/08/30 08:11:36;;;;;;;4.63;3.50;;;26.20;91.60;;;24.80;54.58;100368.91;10441064;27;96685;-83
2022/08/30 08:16:41;;;;;;;4.68;3.63;;;26.20;90.60;;;24.79;55.12;100368.06;10457130;27;96549;-83
2022/08/30 08:21:44;;;;;;;6.53;3.25;;;26.20;90.40;;;24.85;54.79;100359.97;10415937;27;96533;-83
2022/08/30 08:26:47;;;;;;;4.65;3.60;;;26.20;88.60;;;24.92;53.65;100366.00;10450118;27;96700;-82
2022/08/30 08:31:49;;;;;;;3.67;3.25;;;26.30;87.30;;;25.03;52.42;100363.13;10457259;27;96498;-82
2022/08/30 08:36:53;;;;;;;4.63;3.15;;;26.40;85.50;;;25.20;52.83;100359.47;10431619;27;96479;-83
2022/08/30 08:42:26;;;;;;;4.53;3.60;;;26.40;85.10;;;25.36;52.86;100362.03;10417131;27;97002;-82
2022/08/30 08:47:47;;;;;;;3.65;3.25;;;26.60;84.90;;;25.59;51.53;100362.72;10429767;27;97123;-83
2022/08/30 08:58:46;;;;;;;4.90;2.90;;;27.00;79.80;;;25.75;49.99;100364.50;10435058;27;97464;-84
2022/08/30 09:03:50;;;;;;;3.83;3.10;;;27.00;79.90;;;25.85;50.13;100353.66;10429105;27;96843;-84
2022/08/30 09:08:54;;;;;;;4.47;3.65;;;27.20;79.40;;;26.07;49.76;100345.28;10447951;27;96520;-84
2022/08/30 09:13:57;;;;;;;3.97;3.58;;;27.40;79.10;;;26.27;49.44;100338.25;10431575;27;96757;-84
2022/08/30 09:19:00;;;;;;;4.88;3.63;;;27.60;78.10;;;26.28;48.75;100338.03;10422387;28;96651;-84
2022/08/30 09:24:07;;;;;;;4.10;3.50;;;27.50;76.60;;;26.32;48.63;100328.19;10426878;27;97892;-84
2022/08/30 09:29:18;;;;;;;3.42;3.13;;;27.70;75.90;;;26.62;49.10;100323.94;10425044;27;98692;-84
2022/08/30 09:34:22;;;;;;;5.00;3.25;;;27.90;76.10;;;26.78;48.29;100322.03;10442875;27;96587;-84
2022/08/30 09:39:32;;;;;;;4.32;3.33;;;28.20;74.70;;;26.71;47.46;100318.78;10435880;27;96611;-83
2022/08/30 09:44:37;;;;;;;5.80;3.55;;;28.10;73.70;;;26.65;48.20;100310.59;10422815;27;97190;-84
2022/08/30 09:49:43;;;;;;;6.20;3.63;;;28.00;73.80;;;26.72;47.59;100301.31;10417549;27;97504;-84
2022/08/30 09:55:14;;;;;;;4.60;3.53;;;28.00;73.50;;;26.95;47.70;100304.31;10422531;27;96468;-84
2022/08/30 10:00:21;;;;;;;4.50;3.42;;;28.20;73.50;;;27.26;47.36;100301.56;10436357;27;98458;-84
2022/08/30 10:05:51;;;;;;;6.97;3.10;;;28.50;73.10;;;27.70;47.16;100295.47;10427933;27;96639;-84
2022/08/30 10:11:03;;;;;;;4.32;3.35;;;28.90;72.50;;;28.09;45.93;100287.38;10450482;27;97268;-84
2022/08/30 10:16:48;;;;;;;6.53;3.65;;;29.40;71.30;;;28.23;44.02;100295.75;10461468;27;96532;-83
2022/08/30 10:22:13;;;;;;;5.57;3.10;;;29.60;69.20;;;28.20;44.33;100282.66;10387236;27;96723;-83
2022/08/30 10:27:32;;;;;;;7.82;3.58;;;29.60;68.50;;;28.20;43.46;100278.03;10456365;27;98584;-84
2022/08/30 10:33:16;;;;;;;6.30;3.50;;;29.60;67.00;;;28.40;44.33;100279.81;10433371;27;96658;-83
2022/08/30 10:38:32;;;;;;;5.13;3.17;;;29.60;67.90;;;28.78;43.43;100263.66;10412128;28;96728;-83
2022/08/30 10:43:58;;;;;;;3.97;3.47;;;30.00;67.30;;;28.77;42.38;100270.22;10406084;28;96630;-84
2022/08/30 10:49:04;;;;;;;6.53;3.40;;;30.30;65.70;;;28.72;41.57;100262.06;10459282;27;96683;-84
2022/08/30 10:54:31;;;;;;;6.13;3.67;;;30.30;64.50;;;28.69;42.44;100257.19;10461786;27;96456;-84
2022/08/30 10:59:44;;;;;;;4.03;3.30;;;30.30;64.40;;;28.59;42.47;100246.34;10454304;27;96535;-84
2022/08/30 11:05:21;;;;;;;3.78;3.13;;;30.20;64.30;;;28.33;43.58;100257.47;10459434;27;97317;-84
2022/08/30 11:10:45;;;;;;;5.78;3.40;;;29.90;65.10;;;28.00;44.75;100253.53;10458539;27;96799;-84
2022/08/30 11:16:06;;;;;;;5.15;3.58;;;29.40;66.10;;;27.66;45.31;100247.97;10461262;27;96466;-83
2022/08/30 11:21:40;;;;;;;3.85;3.47;;;29.00;67.00;;;27.56;45.38;100248.00;10452474;27;96654;-84
2022/08/30 11:26:53;;;;;;;4.40;3.42;;;28.90;67.40;;;27.56;45.95;100254.28;10449383;27;96563;-83
2022/08/30 11:32:22;;;;;;;5.00;3.65;;;28.80;67.40;;;27.62;46.65;100233.25;10420066;27;96559;-83
2022/08/30 11:37:43;;;;;;;5.47;3.97;;;28.80;68.40;;;27.81;46.80;100231.53;10421189;27;97295;-84
2022/08/30 11:42:50;;;;;;;3.72;3.38;;;28.90;68.80;;;27.99;46.59;100232.78;10441084;27;97305;-83
2022/08/30 11:48:04;;;;;;;3.83;3.47;;;29.00;68.70;;;28.16;45.45;100222.31;10440422;27;96524;-83
2022/08/30 11:53:31;;;;;;;4.13;3.22;;;29.10;68.20;;;28.39;45.63;100218.06;10443170;27;96508;-83
2022/08/30 11:58:54;;;;;;;6.10;3.60;;;29.50;68.40;;;28.37;44.71;100211.25;10417388;27;96669;-84
2022/08/30 12:04:44;;;;;;;4.50;3.28;;;29.60;67.40;;;28.27;45.11;100212.94;10417090;28;97592;-83
2022/08/30 12:09:47;;;;;;;6.25;3.47;;;29.50;67.20;;;28.13;45.79;100208.38;10454421;27;97302;-84
2022/08/30 12:14:54;;;;;;;5.80;3.58;;;29.40;67.60;;;27.80;46.18;100199.88;10459423;27;96631;-83
2022/08/30 12:19:58;;;;;;;4.47;3.55;;;29.10;68.10;;;27.62;46.91;100200.47;10459649;27;97055;-83
2022/08/30 12:25:12;;;;;;;4.97;3.85;;;28.80;68.80;;;27.55;46.83;100189.06;10458906;27;97373;-84
2022/08/30 12:30:26;;;;;;;5.75;3.60;;;28.80;68.50;;;27.55;47.08;100183.59;10420570;27;96426;-83
2022/08/30 12:35:32;;;;;;;4.30;3.28;;;28.70;68.80;;;27.47;47.18;100171.38;10415484;28;96570;-83
2022/08/30 12:40:56;;;;;;;4.45;3.35;;;28.70;69.10;;;27.38;46.68;100162.94;10401518;27;98087;-83
2022/08/30 12:46:05;;;;;;;4.88;3.40;;;28.60;69.00;;;27.27;48.07;100164.06;10433472;27;96633;-83
2022/08/30 12:51:38;;;;;;;9.68;3.50;;;28.50;69.20;;;27.24;48.56;100161.09;10457783;27;96481;-83
2022/08/30 12:56:57;;;;;;;8.85;3.97;;;28.50;69.90;;;27.16;48.63;100151.56;10435527;27;96911;-83
2022/08/30 13:02:23;;;;;;;14.77;4.13;;;28.40;70.10;;;27.16;49.03;100155.09;10432786;27;96562;-83
2022/08/30 13:07:34;;;;;;;5.28;3.33;;;28.40;70.60;;;27.16;48.97;100144.19;10454564;27;97361;-82
2022/08/30 13:12:39;;;;;;;7.10;3.80;;;28.40;70.00;;;27.19;49.13;100138.19;10457311;27;97118;-83
2022/08/30 13:17:43;;;;;;;6.05;3.38;;;28.50;70.60;;;27.40;47.91;100138.09;10440944;27;97059;-83
2022/08/30 13:23:09;;;;;;;5.18;3.78;;;28.60;70.10;;;27.70;47.05;100126.22;10433518;27;96513;-83
2022/08/30 13:28:13;;;;;;;3.53;3.08;;;28.90;68.90;;;28.06;46.65;100128.69;10426953;27;97276;-83
2022/08/30 13:33:17;;;;;;;5.72;3.13;;;29.20;68.10;;;28.36;46.15;100122.16;10427232;27;98139;-84
2022/08/30 13:38:20;;;;;;;3.42;3.10;;;29.50;67.80;;;28.51;45.14;100117.38;10428523;27;96891;-84
2022/08/30 13:43:23;;;;;;;3.38;2.75;;;29.70;66.60;;;28.76;45.12;100104.53;10434104;27;97043;-84
2022/08/30 13:48:26;;;;;;;3.75;2.92;;;30.00;66.60;;;28.86;44.49;100098.97;10421199;27;96694;-84
2022/08/30 13:53:30;;;;;;;5.63;3.40;;;30.10;65.80;;;28.93;44.36;100096.72;10457294;27;96686;-84
2022/08/30 13:58:53;;;;;;;6.90;3.10;;;30.20;66.00;;;28.95;43.03;100094.50;10446470;27;96836;-84
2022/08/30 14:03:58;;;;;;;4.68;3.33;;;30.30;64.60;;;28.97;43.32;100088.75;10409551;27;96661;-84
2022/08/30 14:09:17;;;;;;;5.40;3.20;;;30.30;64.20;;;29.09;43.31;100086.41;10446927;27;97627;-84
2022/08/30 14:14:20;;;;;;;7.18;3.60;;;30.50;64.30;;;29.22;43.37;100076.66;10420087;27;96651;-84
2022/08/30 14:19:43;;;;;;;3.25;2.72;;;30.60;63.80;;;29.37;42.66;100075.63;10453901;27;96553;-84
2022/08/30 14:24:46;;;;;;;4.00;2.95;;;30.70;63.50;;;29.61;42.37;100059.13;10412353;27;96497;-84
2022/08/30 14:29:49;;;;;;;4.78;2.90;;;30.90;63.90;;;29.58;41.43;100064.09;10427790;27;97848;-84
2022/08/30 14:34:52;;;;;;;4.28;3.05;;;30.90;62.30;;;29.22;41.34;100065.72;10441338;27;96625;-85
2022/08/30 14:39:55;;;;;;;4.90;2.80;;;30.50;61.90;;;29.00;42.31;100066.25;10421149;27;96811;-84
2022/08/30 14:44:58;;;;;;;4.45;3.08;;;30.20;62.80;;;28.70;42.44;100061.97;10417274;27;96712;-84
2022/08/30 14:50:04;;;;;;;8.55;3.70;;;29.80;62.90;;;28.44;43.46;100070.44;10438736;27;96705;-84
2022/08/30 14:55:10;;;;;;;5.32;3.30;;;29.60;63.90;;;28.19;44.17;100073.41;10443007;27;97588;-84
2022/08/30 15:00:14;;;;;;;8.15;3.38;;;29.30;64.10;;;28.12;44.89;100068.25;10409644;27;96638;-84
2022/08/30 15:05:19;;;;;;;66.75;6.20;;;29.20;65.00;;;28.36;45.96;100057.41;10418289;27;96694;-84
2022/08/30 15:10:23;;;;;;;4.03;2.78;;;29.40;66.10;;;28.71;44.90;100063.59;10438641;27;96564;-84
2022/08/30 15:15:25;;;;;;;4.80;2.83;;;29.90;65.50;;;28.84;44.23;100049.19;10443246;27;96378;-84
2022/08/30 15:20:29;;;;;;;4.25;2.85;;;30.10;65.00;;;29.18;44.99;100048.25;10401639;28;96576;-85
2022/08/30 15:25:32;;;;;;;4.22;3.25;;;30.50;65.50;;;29.58;44.29;100050.41;10431438;27;96899;-84
2022/08/30 15:30:35;;;;;;;6.20;2.80;;;30.90;65.10;;;29.83;43.10;100037.44;10433927;27;96653;-84
2022/08/30 15:35:38;;;;;;;4.47;2.65;;;31.30;63.30;;;30.07;42.22;100032.63;10414653;27;96704;-85
2022/08/30 15:40:43;;;;;;;3.67;2.42;;;31.70;62.00;;;30.42;40.63;100037.78;10417402;28;96451;-86
2022/08/30 15:45:46;;;;;;;3.65;2.67;;;32.00;60.10;;;30.77;39.33;100044.47;10423148;27;96555;-85
2022/08/30 15:50:57;;;;;;;3.40;2.38;;;32.30;59.20;;;30.98;37.71;100031.97;10421248;27;96742;-85
2022/08/30 15:56:00;;;;;;;3.80;2.40;;;32.50;57.90;;;31.18;37.81;100031.50;10417319;27;96994;-86
2022/08/30 16:01:04;;;;;;;4.25;2.38;;;32.70;57.10;;;31.03;36.88;100036.53;10429202;27;97864;-85
2022/08/30 16:06:18;;;;;;;7.03;2.70;;;32.50;56.20;;;30.63;37.56;100044.47;10407950;27;97379;-85
2022/08/30 16:11:23;;;;;;;2.85;2.40;;;32.00;57.00;;;30.19;38.16;100037.63;10423792;27;97208;-85
2022/08/30 16:16:27;;;;;;;2.90;2.60;;;31.40;57.70;;;29.69;38.82;100034.66;10437662;27;98374;-85
2022/08/30 16:21:35;;;;;;;3.42;2.70;;;30.80;58.20;;;29.16;40.21;100025.84;10416962;27;97175;-85
2022/08/30 16:26:38;;;;;;;6.23;2.67;;;30.30;59.10;;;28.77;40.96;100026.88;10431127;27;96991;-85
2022/08/30 16:31:45;;;;;;;4.15;2.90;;;29.80;59.70;;;28.42;41.40;100033.56;10423536;27;96802;-85
2022/08/30 16:36:49;;;;;;;3.22;2.70;;;29.40;60.20;;;28.11;41.74;100038.50;10434790;27;98411;-85
2022/08/30 16:41:52;;;;;;;4.78;2.40;;;29.20;60.70;;;27.73;41.83;100041.03;10439646;27;96685;-85
2022/08/30 16:46:55;;;;;;;3.13;2.35;;;28.80;60.70;;;27.40;42.45;100035.22;10441404;27;96615;-85
2022/08/30 16:51:58;;;;;;;9.00;2.75;;;28.50;61.10;;;27.13;43.10;100045.75;10428832;27;96578;-85
2022/08/30 16:57:01;;;;;;;7.15;3.10;;;28.20;61.60;;;26.81;43.51;100049.72;10429155;27;96538;-85
2022/08/30 17:02:04;;;;;;;6.80;2.85;;;27.90;61.90;;;26.50;43.68;100040.78;10406297;27;96536;-84
2022/08/30 17:07:07;;;;;;;7.65;2.70;;;27.60;62.20;;;26.27;43.96;100050.38;10425355;27;96688;-84
2022/08/30 17:12:16;;;;;;;4.03;2.30;;;27.40;62.40;;;26.03;44.53;100057.47;10428947;27;96689;-84
2022/08/30 17:17:19;;;;;;;5.38;2.42;;;27.20;62.80;;;25.86;44.85;100068.66;10437769;27;98414;-84
2022/08/30 17:22:23;;;;;;;5.20;2.17;;;27.00;63.10;;;25.65;45.30;100064.25;10443390;27;96713;-84
2022/08/30 17:27:28;;;;;;;4.07;2.20;;;26.90;63.30;;;25.48;45.39;100076.19;10443138;27;96934;-85
2022/08/30 17:32:31;;;;;;;3.35;2.20;;;26.70;63.40;;;25.31;46.04;100081.88;10451985;27;97299;-85
2022/08/30 17:37:34;;;;;;;3.33;2.25;;;26.50;63.90;;;25.09;46.36;100073.09;10430378;27;97977;-85
2022/08/30 17:42:37;;;;;;;4.60;2.50;;;26.30;64.30;;;24.91;46.75;100081.69;10432346;27;96573;-84
2022/08/30 17:47:41;;;;;;;5.32;2.55;;;26.10;64.80;;;24.69;47.58;100085.38;10448283;27;97795;-84
2022/08/30 17:52:44;;;;;;;5.80;2.50;;;25.90;66.00;;;24.54;48.24;100097.00;10437998;27;96673;-84
2022/08/30 17:57:47;;;;;;;4.70;2.55;;;25.70;66.00;;;24.39;49.04;100106.94;10445363;27;97433;-84
2022/08/30 18:02:52;;;;;;;7.07;2.90;;;25.60;66.60;;;24.26;49.11;100111.69;10424417;27;97468;-85
2022/08/30 18:07:55;;;;;;;5.30;2.72;;;25.40;67.00;;;24.12;49.37;100123.28;10441307;27;98442;-84
2022/08/30 18:12:58;;;;;;;3.95;2.63;;;25.30;67.50;;;23.97;49.96;100123.94;10425575;27;96547;-84
2022/08/30 18:18:01;;;;;;;4.07;2.30;;;25.10;67.70;;;23.81;50.23;100133.84;10431082;27;96569;-84
2022/08/30 18:23:06;;;;;;;3.30;2.33;;;25.00;68.00;;;23.70;49.99;100130.22;10448768;27;97950;-85
2022/08/30 18:28:09;;;;;;;4.25;2.60;;;24.90;68.60;;;23.60;50.29;100127.34;10432051;27;96727;-85
2022/08/30 18:33:14;;;;;;;5.78;2.75;;;24.80;68.00;;;23.56;50.47;100139.78;10441603;27;96642;-85
2022/08/30 18:38:21;;;;;;;3.55;2.08;;;24.80;68.00;;;23.50;50.31;100147.03;10449798;27;96485;-85
2022/08/30 18:43:26;;;;;;;4.13;2.30;;;24.80;68.20;;;23.40;50.96;100149.66;10456778;27;97308;-85
2022/08/30 18:48:34;;;;;;;3.70;2.63;;;24.70;68.40;;;23.34;51.13;100155.28;10430000;27;96760;-85
2022/08/30 18:53:38;;;;;;;5.57;2.90;;;24.60;69.10;;;23.27;51.56;100155.47;10438867;27;97936;-85
2022/08/30 18:58:46;;;;;;;4.20;3.10;;;24.50;68.80;;;23.14;52.23;100153.94;10419141;27;96972;-85
2022/08/30 19:03:49;;;;;;;4.75;2.70;;;24.50;69.70;;;23.04;53.13;100155.72;10440462;27;98108;-85
2022/08/30 19:08:54;;;;;;;4.03;2.72;;;24.40;70.40;;;22.91;53.89;100160.44;10460421;27;96589;-85
2022/08/30 19:13:57;;;;;;;3.63;3.08;;;24.20;71.20;;;22.75;54.56;100153.13;10436113;27;97563;-85
2022/08/30 19:19:01;;;;;;;4.45;2.78;;;24.10;72.00;;;22.52;55.52;100162.25;10447726;27;96540;-84
2022/08/30 19:24:04;;;;;;;6.30;5.15;;;23.80;73.10;;;22.29;56.14;100154.28;10431932;27;96640;-85
2022/08/30 19:29:10;;;;;;;8.65;5.80;;;23.60;73.80;;;22.09;56.94;100157.47;10439181;27;96662;-85
2022/08/30 19:34:13;;;;;;;5.43;4.57;;;23.30;74.50;;;21.98;57.11;100156.44;10414762;27;97446;-85
2022/08/30 19:39:16;;;;;;;7.60;4.05;;;23.20;74.80;;;21.87;57.74;100158.16;10413882;27;96542;-85
2022/08/30 19:44:20;;;;;;;8.43;3.53;;;23.10;75.20;;;21.81;57.88;100167.22;10441667;27;96427;-85
2022/08/30 19:49:22;;;;;;;5.20;3.63;;;23.10;75.30;;;21.73;58.07;100159.53;10444461;27;97554;-85
2022/08/30 19:54:26;;;;;;;5.75;3.33;;;23.00;75.80;;;21.67;58.35;100160.50;10418809;27;97980;-85
2022/08/30 19:59:29;;;;;;;4.78;2.80;;;22.90;76.10;;;21.62;58.56;100165.78;10436309;27;96508;-85
2022/08/30 20:04:32;;;;;;;4.30;2.92;;;22.90;76.40;;;21.50;58.97;100168.53;10410085;27;97116;-85
2022/08/30 20:09:35;;;;;;;7.32;3.00;;;22.80;76.40;;;21.42;58.78;100166.22;10441843;27;97576;-85
2022/08/30 20:14:38;;;;;;;5.38;2.88;;;22.70;76.30;;;21.36;58.93;100169.88;10421466;27;96576;-85
2022/08/30 20:19:44;;;;;;;4.40;2.75;;;22.70;76.60;;;21.33;58.76;100156.84;10440528;27;96757;-84
2022/08/30 20:24:47;;;;;;;4.72;2.75;;;22.70;76.50;;;21.31;59.11;100157.09;10439514;27;97557;-85
2022/08/30 20:29:51;;;;;;;4.90;2.60;;;22.60;77.00;;;21.22;59.79;100152.25;10447983;27;96659;-85
2022/08/30 20:34:54;;;;;;;7.65;3.15;;;22.50;77.40;;;21.11;60.02;100152.06;10450003;27;96788;-85
2022/08/30 20:39:59;;;;;;;4.45;2.83;;;22.40;78.10;;;21.04;60.51;100148.63;10455499;27;97554;-84
2022/08/30 20:45:04;;;;;;;3.85;2.65;;;22.30;78.10;;;20.98;60.32;100148.78;10410295;27;97510;-85
2022/08/30 20:50:13;;;;;;;5.50;2.90;;;22.30;78.50;;;20.89;60.63;100142.94;10455442;27;97143;-85
2022/08/30 20:55:16;;;;;;;4.00;2.53;;;22.20;78.50;;;20.83;60.51;100139.28;10419981;27;96939;-85
2022/08/30 21:00:19;;;;;;;4.20;2.47;;;22.10;78.80;;;20.80;60.79;100147.03;10428608;27;96652;-85
2022/08/30 21:05:23;;;;;;;4.75;2.35;;;22.10;78.70;;;20.71;60.58;100143.06;10430445;27;97449;-85
2022/08/30 21:10:26;;;;;;;4.20;2.38;;;22.00;78.80;;;20.66;61.02;100145.63;10416938;27;96573;-84